aviador You're here:

LFOV Decoded Metar

LAVAL in FRANCE
Report Time2017-09-23 09:00:00
UTC Time2017-09-23 09:09:05
Flight Rules vfr VFR
Wind110° at 04 kt
W.Decomp.*RWY 14: 3.5 kt HW 1.9 kt LCW
W.Rank110° ranks 28
Current wind is below 110° avg. (6.4)
Visibility9999 m
Phenomena:N/A
Clouds:N/A
Expected CloudBase > 1,600 ft AGL from Temp-Dew spread
CeilingNone
Temp13°C (ISA -1)
Dew Point09°C (77% RH)
AAT11.4°C
QNH1022 hPa
Density Alt7 ft
Elevation318 ft
Report Wrong Elevation
Raw Report
METAR LFOV 230900Z AUTO 11004KT CAVOK 13/09 Q1022=

Extra information for LFOV:More info

Metar Taf Metar & Taf Last 4 Metars F.Rules Stats Wind Profile Meteogram Temp Stats Airport Information Weather charts Add Link Nearby VenuesMetar ALERT Operation Metar Decoded Social comments